地図

経路データ

SID SEASON NUMBER BASIN SUBBASIN NAME ISO_TIME NATURE LAT LON WMO_WIND WMO_PRES WMO_AGENCY TRACK_TYPE DIST2LAND LANDFALL IFLAG USA_AGENCY USA_ATCF_ID USA_LAT USA_LON USA_RECORD USA_STATUS USA_WIND USA_PRES USA_SSHS USA_R34_NE USA_R34_SE USA_R34_SW USA_R34_NW USA_R50_NE USA_R50_SE USA_R50_SW USA_R50_NW USA_R64_NE USA_R64_SE USA_R64_SW USA_R64_NW USA_POCI USA_ROCI USA_RMW USA_EYE TOKYO_LAT TOKYO_LON TOKYO_GRADE TOKYO_WIND TOKYO_PRES TOKYO_R50_DIR TOKYO_R50_LONG TOKYO_R50_SHORT TOKYO_R30_DIR TOKYO_R30_LONG TOKYO_R30_SHORT TOKYO_LAND CMA_LAT CMA_LON CMA_CAT CMA_WIND CMA_PRES HKO_LAT HKO_LON HKO_CAT HKO_WIND HKO_PRES NEWDELHI_LAT NEWDELHI_LON NEWDELHI_GRADE NEWDELHI_WIND NEWDELHI_PRES NEWDELHI_CI NEWDELHI_DP NEWDELHI_POCI REUNION_LAT REUNION_LON REUNION_TYPE REUNION_WIND REUNION_PRES REUNION_TNUM REUNION_CI REUNION_RMW REUNION_R34_NE REUNION_R34_SE REUNION_R34_SW REUNION_R34_NW REUNION_R50_NE REUNION_R50_SE REUNION_R50_SW REUNION_R50_NW REUNION_R64_NE REUNION_R64_SE REUNION_R64_SW REUNION_R64_NW BOM_LAT BOM_LON BOM_TYPE BOM_WIND BOM_PRES BOM_TNUM BOM_CI BOM_RMW BOM_R34_NE BOM_R34_SE BOM_R34_SW BOM_R34_NW BOM_R50_NE BOM_R50_SE BOM_R50_SW BOM_R50_NW BOM_R64_NE BOM_R64_SE BOM_R64_SW BOM_R64_NW BOM_ROCI BOM_POCI BOM_EYE BOM_POS_METHOD BOM_PRES_METHOD NADI_LAT NADI_LON NADI_CAT NADI_WIND NADI_PRES WELLINGTON_LAT WELLINGTON_LON WELLINGTON_WIND WELLINGTON_PRES DS824_LAT DS824_LON DS824_STAGE DS824_WIND DS824_PRES TD9636_LAT TD9636_LON TD9636_STAGE TD9636_WIND TD9636_PRES TD9635_LAT TD9635_LON TD9635_WIND TD9635_PRES TD9635_ROCI NEUMANN_LAT NEUMANN_LON NEUMANN_CLASS NEUMANN_WIND NEUMANN_PRES MLC_LAT MLC_LON MLC_CLASS MLC_WIND MLC_PRES USA_GUST BOM_GUST BOM_GUST_PER REUNION_GUST REUNION_GUST_PER USA_SEAHGT USA_SEARAD_NE USA_SEARAD_SE USA_SEARAD_SW USA_SEARAD_NW STORM_SPEED STORM_DIR
1942241N17118 1942 45 WP MM NOT_NAMED 1942-08-28 12:00:00 NR 16.6000 117.800 main 213 213 __________O___ -1 16.6000 117.800 4 2 298
1942241N17118 1942 45 WP MM NOT_NAMED 1942-08-28 15:00:00 NR 16.6374 117.731 main 223 223 __________P___ -1 16.6374 117.731 4 2 299
1942241N17118 1942 45 WP MM NOT_NAMED 1942-08-28 18:00:00 NR 16.6799 117.650 main 237 237 __________P___ -1 16.6799 117.650 4 2 298
1942241N17118 1942 45 WP MM NOT_NAMED 1942-08-28 21:00:00 NR 16.7324 117.544 main 247 247 __________P___ -1 16.7324 117.544 4 3 297
1942241N17118 1942 45 WP MM NOT_NAMED 1942-08-29 00:00:00 NR 16.8000 117.400 main 261 261 __________O___ -1 16.8000 117.400 4 4 296
1942241N17118 1942 45 WP MM NOT_NAMED 1942-08-29 03:00:00 NR 16.8857 117.211 main 285 285 __________P___ -1 16.8857 117.211 4 4 295
1942241N17118 1942 45 WP MM NOT_NAMED 1942-08-29 06:00:00 NR 16.9851 116.988 main 308 308 __________P___ -1 16.9851 116.988 4 5 295
1942241N17118 1942 45 WP MM NOT_NAMED 1942-08-29 09:00:00 NR 17.0919 116.745 main 342 342 __________P___ -1 17.0919 116.745 4 5 295
1942241N17118 1942 45 WP MM NOT_NAMED 1942-08-29 12:00:00 NR 17.2000 116.500 main 365 365 __________O___ -1 17.2000 116.500 4 5 295
1942241N17118 1942 45 WP MM NOT_NAMED 1942-08-29 15:00:00 NR 17.3081 116.263 main 389 389 __________P___ -1 17.3081 116.263 4 5 295
1942241N17118 1942 45 WP MM NOT_NAMED 1942-08-29 18:00:00 NR 17.4150 116.028 main 422 422 __________P___ -1 17.4150 116.028 4 5 295
1942241N17118 1942 45 WP MM NOT_NAMED 1942-08-29 21:00:00 NR 17.5144 115.803 main 446 446 __________P___ -1 17.5144 115.803 4 4 294
1942241N17118 1942 45 WP MM NOT_NAMED 1942-08-30 00:00:00 NR 17.6000 115.600 main 469 469 __________O___ -1 17.6000 115.600 4 4 292
1942241N17118 1942 45 WP MM NOT_NAMED 1942-08-30 03:00:00 NR 17.6602 115.428 main 493 493 __________P___ -1 17.6602 115.428 4 3 289
1942241N17118 1942 45 WP MM NOT_NAMED 1942-08-30 06:00:00 NR 17.7073 115.277 main 500 481 __________P___ -1 17.7073 115.277 4 3 288
1942241N17118 1942 45 WP MM NOT_NAMED 1942-08-30 09:00:00 NR 17.7508 115.138 main 476 466 __________P___ -1 17.7508 115.138 4 3 289
1942241N17118 1942 45 WP MM NOT_NAMED 1942-08-30 12:00:00 NR 17.8000 115.000 main 466 452 __________O___ -1 17.8000 115.000 4 3 294
1942241N17118 1942 45 WP MM NOT_NAMED 1942-08-30 15:00:00 NR 17.8677 114.858 main 452 433 __________P___ -1 17.8677 114.858 4 3 298
1942241N17118 1942 45 WP MM NOT_NAMED 1942-08-30 18:00:00 NR 17.9424 114.715 main 433 419 __________P___ -1 17.9424 114.715 4 3 299
1942241N17118 1942 45 WP MM NOT_NAMED 1942-08-30 21:00:00 NR 18.0208 114.564 main 419 395 __________P___ -1 18.0208 114.564 4 3 298
1942241N17118 1942 45 WP MM NOT_NAMED 1942-08-31 00:00:00 NR 18.1000 114.400 main 395 371 __________O___ -1 18.1000 114.400 4 4 295
1942241N17118 1942 45 WP MM NOT_NAMED 1942-08-31 03:00:00 NR 18.1750 114.218 main 371 352 __________P___ -1 18.1750 114.218 4 4 293
1942241N17118 1942 45 WP MM NOT_NAMED 1942-08-31 06:00:00 NR 18.2500 114.022 main 352 328 __________P___ -1 18.2500 114.022 4 4 291
1942241N17118 1942 45 WP MM NOT_NAMED 1942-08-31 09:00:00 NR 18.3250 113.815 main 328 304 __________P___ -1 18.3250 113.815 4 4 291
1942241N17118 1942 45 WP MM NOT_NAMED 1942-08-31 12:00:00 NR 18.4000 113.600 main 304 280 __________O___ -1 18.4000 113.600 4 4 290
1942241N17118 1942 45 WP MM NOT_NAMED 1942-08-31 15:00:00 NR 18.4750 113.374 main 280 261 __________P___ -1 18.4750 113.374 4 5 289
1942241N17118 1942 45 WP MM NOT_NAMED 1942-08-31 18:00:00 NR 18.5500 113.142 main 247 228 __________P___ -1 18.5500 113.142 4 5 289
1942241N17118 1942 45 WP MM NOT_NAMED 1942-08-31 21:00:00 NR 18.6250 112.915 main 228 205 __________P___ -1 18.6250 112.915 4 4 290
1942241N17118 1942 45 WP MM NOT_NAMED 1942-09-01 00:00:00 NR 18.7000 112.700 main 205 181 __________O___ -1 18.7000 112.700 4 4 292
1942241N17118 1942 45 WP MM NOT_NAMED 1942-09-01 03:00:00 NR 18.7748 112.519 main 181 172 __________P___ -1 18.7748 112.519 4 4 294
1942241N17118 1942 45 WP MM NOT_NAMED 1942-09-01 06:00:00 NR 18.8498 112.350 main 163 148 __________P___ -1 18.8498 112.350 4 4 295
1942241N17118 1942 45 WP MM NOT_NAMED 1942-09-01 09:00:00 NR 18.9248 112.181 main 148 124 __________P___ -1 18.9248 112.181 4 4 294
1942241N17118 1942 45 WP MM NOT_NAMED 1942-09-01 12:00:00 NR 19.0000 112.000 main 124 100 __________O___ -1 19.0000 112.000 4 4 293
1942241N17118 1942 45 WP MM NOT_NAMED 1942-09-01 15:00:00 NR 19.0749 111.801 main 100 84 __________P___ -1 19.0749 111.801 4 4 291
1942241N17118 1942 45 WP MM NOT_NAMED 1942-09-01 18:00:00 NR 19.1498 111.587 main 84 61 __________P___ -1 19.1498 111.587 4 4 290
1942241N17118 1942 45 WP MM NOT_NAMED 1942-09-01 21:00:00 NR 19.2248 111.355 main 61 30 __________P___ -1 19.2248 111.355 4 5 288
1942241N17118 1942 45 WP MM NOT_NAMED 1942-09-02 00:00:00 NR 19.3000 111.100 main 30 10 __________O___ -1 19.3000 111.100 4 5 288
1942241N17118 1942 45 WP MM NOT_NAMED 1942-09-02 03:00:00 NR 19.3871 110.830 main 10 0 __________P___ -1 19.3871 110.830 4 6 288
1942241N17118 1942 45 WP MM NOT_NAMED 1942-09-02 06:00:00 NR 19.4723 110.538 main 0 0 __________P___ -1 19.4723 110.538 4 6 286
1942241N17118 1942 45 WP MM NOT_NAMED 1942-09-02 09:00:00 NR 19.5464 110.227 main 0 0 __________P___ -1 19.5464 110.227 4 6 282
1942241N17118 1942 45 WP MM NOT_NAMED 1942-09-02 12:00:00 NR 19.6000 109.900 main 0 0 __________O___ -1 19.6000 109.900 4 6 277
1942241N17118 1942 45 WP MM NOT_NAMED 1942-09-02 15:00:00 NR 19.6266 109.561 main 0 0 __________P___ -1 19.6266 109.561 4 6 273
1942241N17118 1942 45 WP MM NOT_NAMED 1942-09-02 18:00:00 NR 19.6306 109.212 main 0 0 __________P___ -1 19.6306 109.212 4 7 269
1942241N17118 1942 45 WP MM NOT_NAMED 1942-09-02 21:00:00 NR 19.6193 108.858 main 11 11 __________P___ -1 19.6193 108.858 4 7 267
1942241N17118 1942 45 WP MM NOT_NAMED 1942-09-03 00:00:00 NR 19.6000 108.500 main 30 __________O___ -1 19.6000 108.500 4 7 267

デジタル台風データ・検索

IBTrACS Databaseについて

本データベースは、米国NOAAが公開する1842年以降の世界の熱帯低気圧のベストトラックデータアーカイブInternational Best Track Archive for Climate Stewardship (IBTrACS)を、ウェブで閲覧しやすい形式に変換したものです。

最終更新日:2021-12-03